createdAt,value
2023-04-07T00:00:10.585Z,950.38
2023-04-07T00:00:21.582Z,950.38
2023-04-07T00:00:32.576Z,950.38
2023-04-07T00:00:43.581Z,950.38
2023-04-07T00:00:54.616Z,950.38
2023-04-07T00:01:06.567Z,950.38
2023-04-07T00:01:17.559Z,950.38
2023-04-07T00:01:28.574Z,950.40
2023-04-07T00:01:39.665Z,950.40
2023-04-07T00:01:51.574Z,950.39
2023-04-07T00:02:02.690Z,950.39
2023-04-07T00:02:13.636Z,950.38
2023-04-07T00:02:24.618Z,950.38
2023-04-07T00:02:35.648Z,950.38
2023-04-07T00:02:46.560Z,950.38
2023-04-07T00:02:58.652Z,950.38
2023-04-07T00:03:09.715Z,950.38
2023-04-07T00:03:20.785Z,950.38
2023-04-07T00:03:32.777Z,950.38
2023-04-07T00:03:44.654Z,950.38
2023-04-07T00:03:55.709Z,950.38
2023-04-07T00:04:06.771Z,950.38
2023-04-07T00:04:17.697Z,950.38
2023-04-07T00:04:28.980Z,950.38
2023-04-07T00:04:39.687Z,950.38
2023-04-07T00:04:51.614Z,950.39
2023-04-07T00:05:03.609Z,950.39
2023-04-07T00:05:15.576Z,950.38
2023-04-07T00:05:26.555Z,950.38
2023-04-07T00:05:37.630Z,950.38
2023-04-07T00:05:49.577Z,950.38
2023-04-07T00:06:00.589Z,950.38
2023-04-07T00:06:11.568Z,950.38
2023-04-07T00:06:23.571Z,950.38
2023-04-07T00:06:34.547Z,950.38
2023-04-07T00:06:45.619Z,950.39
2023-04-07T00:06:57.605Z,950.38
2023-04-07T00:07:08.567Z,950.38
2023-04-07T00:07:19.577Z,950.38
2023-04-07T00:07:30.553Z,950.37
2023-04-07T00:07:52.428Z,950.37
2023-04-07T00:07:56.866Z,950.37
2023-04-07T00:08:04.594Z,950.37
2023-04-07T00:08:15.580Z,950.38
2023-04-07T00:08:26.589Z,950.38
2023-04-07T00:08:37.585Z,950.37
2023-04-07T00:08:48.564Z,950.37
2023-04-07T00:08:59.543Z,950.37
2023-04-07T00:09:10.641Z,950.37
2023-04-07T00:09:22.581Z,950.37
2023-04-07T00:09:33.571Z,950.38
2023-04-07T00:09:44.553Z,950.37
2023-04-07T00:09:55.558Z,950.37
2023-04-07T00:10:06.633Z,950.38
2023-04-07T00:10:18.571Z,950.37
2023-04-07T00:10:29.559Z,950.37
2023-04-07T00:10:40.534Z,950.37
2023-04-07T00:10:51.623Z,950.37
2023-04-07T00:11:03.590Z,950.37
2023-04-07T00:11:15.568Z,950.38
2023-04-07T00:11:26.566Z,950.38
2023-04-07T00:11:37.566Z,950.38
2023-04-07T00:11:48.553Z,950.38
2023-04-07T00:11:59.553Z,950.38
2023-04-07T00:12:10.522Z,950.37
2023-04-07T00:12:21.627Z,950.37
2023-04-07T00:12:32.598Z,950.38
2023-04-07T00:12:43.582Z,950.38
2023-04-07T00:12:54.570Z,950.37
2023-04-07T00:13:05.554Z,950.37
2023-04-07T00:13:16.684Z,950.37
2023-04-07T00:13:29.557Z,950.37
2023-04-07T00:13:39.581Z,950.37
2023-04-07T00:13:50.586Z,950.37
2023-04-07T00:14:01.559Z,950.37
2023-04-07T00:14:12.561Z,950.37
2023-04-07T00:14:23.554Z,950.37
2023-04-07T00:14:34.545Z,950.36
2023-04-07T00:14:45.640Z,950.36
2023-04-07T00:14:57.599Z,950.37
2023-04-07T00:15:08.576Z,950.36
2023-04-07T00:15:19.554Z,950.35
2023-04-07T00:15:30.567Z,950.35
2023-04-07T00:15:41.566Z,950.35
2023-04-07T00:15:52.600Z,950.35
2023-04-07T00:16:03.619Z,950.35
2023-04-07T00:16:15.692Z,950.35
2023-04-07T00:16:27.629Z,950.34
2023-04-07T00:16:38.562Z,950.34
2023-04-07T00:16:49.569Z,950.34
2023-04-07T00:17:00.552Z,950.34
2023-04-07T00:17:11.536Z,950.34
2023-04-07T00:17:22.621Z,950.35
2023-04-07T00:17:33.585Z,950.34
2023-04-07T00:17:45.617Z,950.34
2023-04-07T00:17:57.613Z,950.33
2023-04-07T00:18:08.628Z,950.33
2023-04-07T00:18:20.576Z,950.33
2023-04-07T00:18:31.549Z,950.34
2023-04-07T00:18:42.642Z,950.34
2023-04-07T00:18:54.598Z,950.33
2023-04-07T00:19:06.595Z,950.33
2023-04-07T00:19:17.571Z,950.33
2023-04-07T00:19:28.548Z,950.33
2023-04-07T00:19:39.549Z,950.33
2023-04-07T00:19:50.622Z,950.33
2023-04-07T00:20:02.596Z,950.33
2023-04-07T00:20:13.597Z,950.33
2023-04-07T00:20:24.578Z,950.33
2023-04-07T00:20:35.565Z,950.32
2023-04-07T00:20:46.539Z,950.32
2023-04-07T00:20:57.637Z,950.32
2023-04-07T00:21:09.583Z,950.32
2023-04-07T00:21:20.577Z,950.32
2023-04-07T00:21:31.568Z,950.31
2023-04-07T00:21:42.525Z,950.31
2023-04-07T00:21:53.560Z,950.31
2023-04-07T00:22:04.551Z,950.31
2023-04-07T00:22:15.561Z,950.30
2023-04-07T00:22:26.552Z,950.31
2023-04-07T00:22:37.637Z,950.31
2023-04-07T00:22:49.634Z,950.31
2023-04-07T00:23:01.579Z,950.31
2023-04-07T00:23:12.551Z,950.31
2023-04-07T00:23:23.536Z,950.32
2023-04-07T00:23:34.633Z,950.31
2023-04-07T00:23:46.588Z,950.31
2023-04-07T00:23:57.579Z,950.32
2023-04-07T00:24:08.556Z,950.31
2023-04-07T00:24:30.993Z,950.31
2023-04-07T00:24:34.583Z,950.31
2023-04-07T00:24:41.560Z,950.32
2023-04-07T00:24:52.556Z,950.32
2023-04-07T00:25:03.542Z,950.32
2023-04-07T00:25:14.545Z,950.33
2023-04-07T00:25:25.657Z,950.33
2023-04-07T00:25:37.601Z,950.34
2023-04-07T00:25:48.566Z,950.33
2023-04-07T00:25:59.553Z,950.33
2023-04-07T00:26:10.633Z,950.33
2023-04-07T00:26:22.576Z,950.33
2023-04-07T00:26:33.570Z,950.34
2023-04-07T00:26:44.582Z,950.34
2023-04-07T00:26:55.581Z,950.34
2023-04-07T00:27:06.571Z,950.34
2023-04-07T00:27:17.554Z,950.33
2023-04-07T00:27:28.559Z,950.34
2023-04-07T00:27:39.632Z,950.34
2023-04-07T00:27:51.577Z,950.33
2023-04-07T00:28:02.539Z,950.34
2023-04-07T00:28:13.556Z,950.34
2023-04-07T00:28:24.556Z,950.33
2023-04-07T00:28:35.623Z,950.33
2023-04-07T00:28:47.578Z,950.33
2023-04-07T00:28:58.560Z,950.33
2023-04-07T00:29:09.542Z,950.33
2023-04-07T00:29:20.541Z,950.33
2023-04-07T00:29:31.629Z,950.33
2023-04-07T00:29:43.561Z,950.33
2023-04-07T00:29:54.553Z,950.33
2023-04-07T00:30:05.637Z,950.32
2023-04-07T00:30:17.597Z,950.33
2023-04-07T00:30:29.570Z,950.33
2023-04-07T00:30:40.578Z,950.33
2023-04-07T00:30:51.597Z,950.33
2023-04-07T00:31:03.609Z,950.33
2023-04-07T00:31:14.653Z,950.33
2023-04-07T00:31:26.674Z,950.33
2023-04-07T00:31:38.625Z,950.33
2023-04-07T00:31:50.607Z,950.33
2023-04-07T00:32:01.582Z,950.33
2023-04-07T00:32:12.560Z,950.33
2023-04-07T00:32:23.606Z,950.32
2023-04-07T00:32:35.365Z,950.32
2023-04-07T00:32:45.746Z,950.32
2023-04-07T00:32:56.595Z,950.33
2023-04-07T00:33:09.796Z,950.33
2023-04-07T00:33:19.590Z,950.34
2023-04-07T00:33:30.585Z,950.33
2023-04-07T00:33:41.561Z,950.33
2023-04-07T00:33:52.837Z,950.33
2023-04-07T00:34:04.588Z,950.33
2023-04-07T00:34:15.593Z,950.32
2023-04-07T00:34:26.587Z,950.32
2023-04-07T00:34:37.591Z,950.32
2023-04-07T00:34:48.570Z,950.32
2023-04-07T00:34:59.545Z,950.32
2023-04-07T00:35:10.633Z,950.33
2023-04-07T00:35:22.624Z,950.33
2023-04-07T00:35:34.582Z,950.33
2023-04-07T00:35:45.602Z,950.33
2023-04-07T00:35:57.608Z,950.33
2023-04-07T00:36:08.601Z,950.32
2023-04-07T00:36:20.573Z,950.32
2023-04-07T00:36:31.560Z,950.32
2023-04-07T00:36:42.553Z,950.32
2023-04-07T00:36:53.559Z,950.32
2023-04-07T00:37:04.548Z,950.31
2023-04-07T00:37:15.628Z,950.31
2023-04-07T00:37:27.609Z,950.32
2023-04-07T00:37:39.581Z,950.32
2023-04-07T00:37:51.582Z,950.32
2023-04-07T00:38:02.563Z,950.32
2023-04-07T00:38:13.546Z,950.32
2023-04-07T00:38:24.670Z,950.32
2023-04-07T00:38:36.537Z,950.31
2023-04-07T00:38:47.630Z,950.32
2023-04-07T00:38:59.561Z,950.32
2023-04-07T00:39:10.547Z,950.32
2023-04-07T00:39:21.563Z,950.32
2023-04-07T00:39:32.548Z,950.32
2023-04-07T00:39:43.617Z,950.32
2023-04-07T00:39:55.620Z,950.31
2023-04-07T00:40:07.580Z,950.31
2023-04-07T00:40:18.571Z,950.32
2023-04-07T00:40:29.558Z,950.31
2023-04-07T00:40:40.640Z,950.32
2023-04-07T00:40:52.578Z,950.31
2023-04-07T00:41:03.562Z,950.31
2023-04-07T00:41:14.563Z,950.30
2023-04-07T00:41:25.546Z,950.30
2023-04-07T00:41:36.628Z,950.30
2023-04-07T00:41:48.589Z,950.29
2023-04-07T00:41:59.570Z,950.29
2023-04-07T00:42:10.563Z,950.28
2023-04-07T00:42:21.548Z,950.28
2023-04-07T00:42:32.627Z,950.28
2023-04-07T00:42:44.597Z,950.28
2023-04-07T00:42:55.606Z,950.28
2023-04-07T00:43:06.629Z,950.28
2023-04-07T00:43:18.592Z,950.27
2023-04-07T00:43:29.582Z,950.27
2023-04-07T00:43:40.555Z,950.27
2023-04-07T00:43:51.976Z,950.26
2023-04-07T00:44:02.584Z,950.26
2023-04-07T00:44:13.571Z,950.26
2023-04-07T00:44:24.554Z,950.25
2023-04-07T00:44:35.544Z,950.24
2023-04-07T00:44:46.548Z,950.24
2023-04-07T00:44:57.629Z,950.23
2023-04-07T00:45:09.604Z,950.24
2023-04-07T00:45:20.601Z,950.23
2023-04-07T00:45:31.584Z,950.23
2023-04-07T00:45:43.574Z,950.23
2023-04-07T00:45:54.566Z,950.22
2023-04-07T00:46:05.563Z,950.22
2023-04-07T00:46:16.602Z,950.22
2023-04-07T00:46:27.627Z,950.22
2023-04-07T00:46:38.637Z,950.22
2023-04-07T00:46:50.629Z,950.22
2023-04-07T00:47:01.598Z,950.22
2023-04-07T00:47:12.596Z,950.22
2023-04-07T00:47:23.612Z,950.21
2023-04-07T00:47:35.608Z,950.20
2023-04-07T00:47:47.624Z,950.21
2023-04-07T00:47:59.634Z,950.21
2023-04-07T00:48:11.624Z,950.21
2023-04-07T00:48:23.618Z,950.21
2023-04-07T00:48:34.601Z,950.21
2023-04-07T00:48:45.583Z,950.21
2023-04-07T00:48:56.579Z,950.21
2023-04-07T00:49:08.810Z,950.21
2023-04-07T00:49:18.594Z,950.20
2023-04-07T00:49:29.565Z,950.20
2023-04-07T00:49:40.564Z,950.21
2023-04-07T00:49:51.628Z,950.21
2023-04-07T00:50:03.573Z,950.20
2023-04-07T00:50:14.556Z,950.20
2023-04-07T00:50:25.546Z,950.20
2023-04-07T00:50:36.546Z,950.20
2023-04-07T00:50:47.636Z,950.20
2023-04-07T00:50:59.610Z,950.20
2023-04-07T00:51:11.588Z,950.20
2023-04-07T00:51:22.583Z,950.20
2023-04-07T00:51:33.562Z,950.20
2023-04-07T00:51:44.542Z,950.20
2023-04-07T00:51:55.619Z,950.19
2023-04-07T00:52:07.576Z,950.19
2023-04-07T00:52:18.543Z,950.19
2023-04-07T00:52:29.632Z,950.19
2023-04-07T00:52:41.584Z,950.19
2023-04-07T00:52:52.573Z,950.19
2023-04-07T00:53:03.574Z,950.20
2023-04-07T00:53:14.588Z,950.19
2023-04-07T00:53:25.537Z,950.19
2023-04-07T00:53:36.573Z,950.19
2023-04-07T00:53:47.594Z,950.19
2023-04-07T00:53:58.581Z,950.19
2023-04-07T00:54:09.567Z,950.20
2023-04-07T00:54:20.565Z,950.19
2023-04-07T00:54:31.560Z,950.19
2023-04-07T00:54:42.587Z,950.19
2023-04-07T00:54:53.582Z,950.19
2023-04-07T00:55:04.570Z,950.19
2023-04-07T00:55:15.551Z,950.19
2023-04-07T00:55:26.616Z,950.19
2023-04-07T00:55:38.613Z,950.19
2023-04-07T00:55:50.588Z,950.19
2023-04-07T00:56:01.574Z,950.19
2023-04-07T00:56:12.535Z,950.19
2023-04-07T00:56:23.639Z,950.19
2023-04-07T00:56:35.582Z,950.19
2023-04-07T00:56:46.553Z,950.19
2023-04-07T00:56:57.651Z,950.19
2023-04-07T00:57:08.660Z,950.19
2023-04-07T00:57:20.636Z,950.19
2023-04-07T00:57:32.596Z,950.18
2023-04-07T00:57:43.596Z,950.18
2023-04-07T00:57:54.589Z,950.17
2023-04-07T00:58:05.562Z,950.17
2023-04-07T00:58:16.537Z,950.18
2023-04-07T00:58:27.597Z,950.18
2023-04-07T00:58:39.562Z,950.17
2023-04-07T00:58:50.569Z,950.17
2023-04-07T00:59:01.546Z,950.17
2023-04-07T00:59:12.622Z,950.16
2023-04-07T00:59:23.594Z,950.16
2023-04-07T00:59:34.632Z,950.16
2023-04-07T00:59:46.571Z,950.16
2023-04-07T00:59:57.591Z,950.15
2023-04-07T01:00:08.570Z,950.15
2023-04-07T01:00:20.597Z,950.15
2023-04-07T01:00:31.584Z,950.15
2023-04-07T01:00:43.568Z,950.14
2023-04-07T01:00:54.566Z,950.14
2023-04-07T01:01:05.547Z,950.14
2023-04-07T01:01:16.673Z,950.14
2023-04-07T01:01:28.746Z,950.13
2023-04-07T01:01:40.622Z,950.13
2023-04-07T01:01:51.681Z,950.13
2023-04-07T01:02:03.688Z,950.13
2023-04-07T01:02:14.769Z,950.12
2023-04-07T01:02:26.830Z,950.12
2023-04-07T01:02:37.984Z,950.12
2023-04-07T01:02:49.741Z,950.12
2023-04-07T01:03:00.748Z,950.12
2023-04-07T01:03:11.819Z,950.12
2023-04-07T01:03:23.828Z,950.11
2023-04-07T01:03:35.740Z,950.11
2023-04-07T01:03:47.767Z,950.11
2023-04-07T01:03:58.954Z,950.11
2023-04-07T01:04:09.653Z,950.10
2023-04-07T01:04:20.669Z,950.10
2023-04-07T01:04:31.662Z,950.11
2023-04-07T01:04:43.764Z,950.10
2023-04-07T01:04:55.652Z,950.10
2023-04-07T01:05:07.717Z,950.11
2023-04-07T01:05:18.616Z,950.11
2023-04-07T01:05:30.597Z,950.11
2023-04-07T01:05:41.593Z,950.11
2023-04-07T01:05:52.580Z,950.11
2023-04-07T01:06:03.564Z,950.11
2023-04-07T01:06:14.572Z,950.11
2023-04-07T01:06:25.530Z,950.10
2023-04-07T01:06:36.627Z,950.11
2023-04-07T01:06:48.582Z,950.11
2023-04-07T01:06:59.569Z,950.10
2023-04-07T01:07:10.555Z,950.10
2023-04-07T01:07:21.535Z,950.10
2023-04-07T01:07:32.628Z,950.09
2023-04-07T01:07:44.561Z,950.09
2023-04-07T01:07:55.538Z,950.09
2023-04-07T01:08:06.535Z,950.08
2023-04-07T01:08:17.550Z,950.08
2023-04-07T01:08:28.554Z,950.07
2023-04-07T01:08:39.633Z,950.07
2023-04-07T01:08:51.626Z,950.07
2023-04-07T01:09:03.570Z,950.06
2023-04-07T01:09:14.553Z,950.06
2023-04-07T01:09:25.556Z,950.05
2023-04-07T01:09:36.551Z,950.05
2023-04-07T01:09:47.536Z,950.05
2023-04-07T01:09:58.625Z,950.04
2023-04-07T01:10:10.569Z,950.04
2023-04-07T01:10:21.556Z,950.04
2023-04-07T01:10:32.557Z,950.04
2023-04-07T01:10:43.549Z,950.04
2023-04-07T01:10:54.541Z,950.03
2023-04-07T01:11:05.605Z,950.03
2023-04-07T01:11:16.590Z,950.03
2023-04-07T01:11:27.565Z,950.02
2023-04-07T01:11:38.580Z,950.02
2023-04-07T01:11:49.559Z,950.02
2023-04-07T01:12:00.643Z,950.02
2023-04-07T01:12:12.583Z,950.02
2023-04-07T01:12:23.568Z,950.01
2023-04-07T01:12:34.547Z,950.01
2023-04-07T01:12:45.621Z,950.01
2023-04-07T01:12:57.614Z,950.01
2023-04-07T01:13:09.565Z,950.01
2023-04-07T01:13:20.545Z,950.01
2023-04-07T01:13:31.635Z,950.01
2023-04-07T01:13:43.583Z,950.00
2023-04-07T01:13:54.640Z,950.01
2023-04-07T01:14:05.571Z,950.00
2023-04-07T01:14:16.543Z,950.00
2023-04-07T01:14:27.628Z,950.00
2023-04-07T01:14:39.590Z,950.00
2023-04-07T01:14:50.567Z,950.00
2023-04-07T01:15:01.546Z,950.00
2023-04-07T01:15:12.620Z,950.01
2023-04-07T01:15:24.581Z,950.01
2023-04-07T01:15:35.578Z,950.01
2023-04-07T01:15:46.596Z,950.01
2023-04-07T01:15:57.638Z,950.01
2023-04-07T01:16:09.639Z,950.02
2023-04-07T01:16:21.633Z,950.02
2023-04-07T01:16:33.708Z,950.02
2023-04-07T01:16:45.613Z,950.01
2023-04-07T01:16:57.571Z,950.01
2023-04-07T01:17:08.555Z,950.02
2023-04-07T01:17:19.581Z,950.02
2023-04-07T01:17:30.573Z,950.01
2023-04-07T01:17:41.630Z,950.01
2023-04-07T01:17:53.602Z,950.01
2023-04-07T01:18:04.632Z,950.01
2023-04-07T01:18:15.623Z,950.01
2023-04-07T01:18:27.558Z,950.01
2023-04-07T01:18:38.582Z,950.01
2023-04-07T01:18:49.558Z,950.01
2023-04-07T01:19:00.533Z,950.00
2023-04-07T01:19:11.624Z,950.00
2023-04-07T01:19:22.595Z,950.00
2023-04-07T01:19:33.567Z,950.00
2023-04-07T01:19:44.557Z,950.00
2023-04-07T01:19:55.536Z,949.99
2023-04-07T01:20:06.608Z,949.99
2023-04-07T01:20:17.595Z,949.99
2023-04-07T01:20:29.588Z,949.98
2023-04-07T01:20:40.570Z,949.98
2023-04-07T01:20:51.566Z,949.98
2023-04-07T01:21:02.547Z,949.98
2023-04-07T01:21:13.559Z,949.98
2023-04-07T01:21:24.542Z,949.98
2023-04-07T01:21:35.541Z,949.98
2023-04-07T01:21:46.623Z,949.97
2023-04-07T01:21:58.565Z,949.97
2023-04-07T01:22:09.547Z,949.97
2023-04-07T01:22:20.627Z,949.97
2023-04-07T01:22:32.571Z,949.97
2023-04-07T01:22:43.589Z,949.97
2023-04-07T01:22:54.575Z,949.97
2023-04-07T01:23:05.583Z,949.97
2023-04-07T01:23:16.555Z,949.97
2023-04-07T01:23:27.551Z,949.97
2023-04-07T01:23:38.669Z,949.97
2023-04-07T01:23:50.627Z,949.97
2023-04-07T01:24:02.581Z,949.96
2023-04-07T01:24:13.576Z,949.96
2023-04-07T01:24:24.551Z,949.96
2023-04-07T01:24:35.555Z,949.95
2023-04-07T01:24:46.534Z,949.95
2023-04-07T01:24:57.537Z,949.95
2023-04-07T01:25:08.629Z,949.95
2023-04-07T01:25:20.585Z,949.95
2023-04-07T01:25:31.577Z,949.95
2023-04-07T01:25:42.560Z,949.95
2023-04-07T01:25:53.625Z,949.95
2023-04-07T01:26:05.595Z,949.95
2023-04-07T01:26:17.570Z,949.94
2023-04-07T01:26:28.549Z,949.95
2023-04-07T01:26:39.626Z,949.94
2023-04-07T01:26:51.567Z,949.94
2023-04-07T01:27:02.554Z,949.94
2023-04-07T01:27:13.625Z,949.94
2023-04-07T01:27:25.570Z,949.94
2023-04-07T01:27:36.564Z,949.94
2023-04-07T01:27:47.612Z,949.93
2023-04-07T01:27:58.594Z,949.94
2023-04-07T01:28:09.576Z,949.93
2023-04-07T01:28:20.569Z,949.93
2023-04-07T01:28:31.561Z,949.94
2023-04-07T01:28:42.578Z,949.94
2023-04-07T01:28:53.570Z,949.94
2023-04-07T01:29:04.578Z,949.94
2023-04-07T01:29:15.549Z,949.93
2023-04-07T01:29:26.553Z,949.94
2023-04-07T01:29:37.546Z,949.94
2023-04-07T01:29:48.540Z,949.94
2023-04-07T01:29:59.626Z,949.94
2023-04-07T01:30:11.560Z,949.94
2023-04-07T01:30:22.540Z,949.94
2023-04-07T01:30:33.637Z,949.94
2023-04-07T01:30:45.573Z,949.94
2023-04-07T01:30:56.552Z,949.94
2023-04-07T01:31:07.533Z,949.95
2023-04-07T01:31:18.662Z,949.95
2023-04-07T01:31:30.662Z,949.95
2023-04-07T01:31:42.575Z,949.95
2023-04-07T01:31:53.549Z,949.95
2023-04-07T01:32:04.577Z,949.95
2023-04-07T01:32:15.571Z,949.95
2023-04-07T01:32:26.612Z,949.95
2023-04-07T01:32:38.591Z,949.95
2023-04-07T01:32:49.597Z,949.95
2023-04-07T01:33:01.607Z,949.94
2023-04-07T01:33:13.593Z,949.94
2023-04-07T01:33:24.602Z,949.94
2023-04-07T01:33:36.648Z,949.94
2023-04-07T01:33:46.571Z,949.94
2023-04-07T01:33:57.646Z,949.94
2023-04-07T01:34:08.560Z,949.94
2023-04-07T01:34:19.556Z,949.94
2023-04-07T01:34:30.539Z,949.94
2023-04-07T01:34:41.629Z,949.94
2023-04-07T01:34:53.575Z,949.93
2023-04-07T01:35:04.548Z,949.93
2023-04-07T01:35:15.548Z,949.92
2023-04-07T01:35:26.623Z,949.92
2023-04-07T01:35:37.603Z,949.92
2023-04-07T01:35:48.583Z,949.92
2023-04-07T01:35:59.566Z,949.92
2023-04-07T01:36:10.570Z,949.91
2023-04-07T01:36:21.544Z,949.91
2023-04-07T01:36:32.572Z,949.91
2023-04-07T01:36:43.589Z,949.90
2023-04-07T01:36:54.667Z,949.90
2023-04-07T01:37:05.583Z,949.90
2023-04-07T01:37:16.597Z,949.90
2023-04-07T01:37:27.591Z,949.90
2023-04-07T01:37:38.607Z,949.90
2023-04-07T01:37:50.656Z,949.90
2023-04-07T01:38:02.614Z,949.90
2023-04-07T01:38:14.564Z,949.90
2023-04-07T01:38:25.536Z,949.89
2023-04-07T01:38:36.632Z,949.89
2023-04-07T01:38:48.614Z,949.89
2023-04-07T01:39:00.558Z,949.89
2023-04-07T01:39:11.635Z,949.89
2023-04-07T01:39:23.593Z,949.88
2023-04-07T01:39:34.576Z,949.88
2023-04-07T01:39:45.570Z,949.88
2023-04-07T01:39:56.555Z,949.88
2023-04-07T01:40:07.609Z,949.88
2023-04-07T01:40:19.600Z,949.88
2023-04-07T01:40:30.580Z,949.88
2023-04-07T01:40:41.575Z,949.88
2023-04-07T01:40:52.573Z,949.88
2023-04-07T01:41:03.555Z,949.88
2023-04-07T01:41:14.568Z,949.88
2023-04-07T01:41:25.567Z,949.88
2023-04-07T01:41:36.553Z,949.88
2023-04-07T01:41:47.543Z,949.88
2023-04-07T01:41:58.616Z,949.88
2023-04-07T01:42:09.594Z,949.89
2023-04-07T01:42:20.601Z,949.89
2023-04-07T01:42:31.576Z,949.90
2023-04-07T01:42:42.558Z,949.90
2023-04-07T01:42:53.550Z,949.90
2023-04-07T01:43:04.567Z,949.90
2023-04-07T01:43:15.560Z,949.90
2023-04-07T01:43:26.566Z,949.90
2023-04-07T01:43:37.558Z,949.90
2023-04-07T01:43:48.635Z,949.90
2023-04-07T01:44:00.593Z,949.91
2023-04-07T01:44:11.594Z,949.91
2023-04-07T01:44:23.561Z,949.91
2023-04-07T01:44:34.542Z,949.91
2023-04-07T01:44:45.625Z,949.92
2023-04-07T01:44:56.610Z,949.92
2023-04-07T01:45:07.583Z,949.92
2023-04-07T01:45:18.565Z,949.92
2023-04-07T01:45:29.542Z,949.92
2023-04-07T01:45:40.550Z,949.92
2023-04-07T01:45:51.623Z,949.92
2023-04-07T01:46:03.569Z,949.92
2023-04-07T01:46:14.539Z,949.92
2023-04-07T01:46:25.635Z,949.92
2023-04-07T01:46:37.608Z,949.92
2023-04-07T01:46:48.614Z,949.92
2023-04-07T01:47:00.601Z,949.92
2023-04-07T01:47:12.596Z,949.92
2023-04-07T01:47:24.745Z,949.92
2023-04-07T01:47:35.981Z,949.91
2023-04-07T01:47:47.655Z,949.91
2023-04-07T01:47:58.580Z,949.91
2023-04-07T01:48:09.644Z,949.90
2023-04-07T01:48:20.555Z,949.90
2023-04-07T01:48:31.554Z,949.90
2023-04-07T01:48:42.597Z,949.90
2023-04-07T01:48:54.590Z,949.90
2023-04-07T01:49:05.572Z,949.90
2023-04-07T01:49:16.564Z,949.90
2023-04-07T01:49:27.540Z,949.89
2023-04-07T01:49:38.653Z,949.89
2023-04-07T01:49:50.586Z,949.89
2023-04-07T01:50:01.560Z,949.89
2023-04-07T01:50:12.553Z,949.89
2023-04-07T01:50:23.554Z,949.89
2023-04-07T01:50:34.636Z,949.88
2023-04-07T01:50:46.590Z,949.89
2023-04-07T01:50:57.587Z,949.89
2023-04-07T01:51:08.593Z,949.89
2023-04-07T01:51:19.597Z,949.88
2023-04-07T01:51:31.616Z,949.88
2023-04-07T01:51:43.576Z,949.88
2023-04-07T01:51:54.581Z,949.88
2023-04-07T01:52:05.568Z,949.87
2023-04-07T01:52:16.555Z,949.87
2023-04-07T01:52:27.640Z,949.87
2023-04-07T01:52:39.587Z,949.88
2023-04-07T01:52:50.582Z,949.88
2023-04-07T01:53:01.564Z,949.87
2023-04-07T01:53:12.550Z,949.88
2023-04-07T01:53:23.631Z,949.88
2023-04-07T01:53:35.578Z,949.88
2023-04-07T01:53:46.559Z,949.87
2023-04-07T01:53:57.637Z,949.87
2023-04-07T01:54:08.590Z,949.87
2023-04-07T01:54:19.593Z,949.87
2023-04-07T01:54:31.569Z,949.88
2023-04-07T01:54:42.550Z,949.88
2023-04-07T01:54:53.630Z,949.88
2023-04-07T01:55:05.575Z,949.88
2023-04-07T01:55:16.554Z,949.88
2023-04-07T01:55:27.631Z,949.87
2023-04-07T01:55:39.588Z,949.88
2023-04-07T01:55:50.572Z,949.88
2023-04-07T01:56:01.541Z,949.88
2023-04-07T01:56:12.637Z,949.88
2023-04-07T01:56:24.598Z,949.88
2023-04-07T01:56:36.570Z,949.89
2023-04-07T01:56:47.557Z,949.89
2023-04-07T01:56:58.553Z,949.89
2023-04-07T01:57:09.633Z,949.89
2023-04-07T01:57:21.592Z,949.89
2023-04-07T01:57:33.570Z,949.89
2023-04-07T01:57:44.592Z,949.89
2023-04-07T01:57:55.553Z,949.89
2023-04-07T01:58:06.575Z,949.89
2023-04-07T01:58:17.556Z,949.89
2023-04-07T01:58:28.558Z,949.89
2023-04-07T01:58:39.556Z,949.89
2023-04-07T01:58:50.540Z,949.89
2023-04-07T01:59:01.611Z,949.89
2023-04-07T01:59:13.592Z,949.89
2023-04-07T01:59:24.584Z,949.89
2023-04-07T01:59:35.576Z,949.89
2023-04-07T01:59:46.582Z,949.89
2023-04-07T01:59:57.587Z,949.89
2023-04-07T02:00:08.572Z,949.89
2023-04-07T02:00:19.564Z,949.90
2023-04-07T02:00:30.543Z,949.90
2023-04-07T02:00:41.597Z,949.90
2023-04-07T02:00:53.585Z,949.89
2023-04-07T02:01:04.645Z,949.90
2023-04-07T02:01:16.648Z,949.89
2023-04-07T02:01:27.668Z,949.89
2023-04-07T02:01:38.844Z,949.89
2023-04-07T02:01:49.711Z,949.89
2023-04-07T02:02:00.645Z,949.89
2023-04-07T02:02:11.632Z,949.89
2023-04-07T02:02:22.640Z,949.89
2023-04-07T02:02:33.648Z,949.89
2023-04-07T02:02:44.701Z,949.89
2023-04-07T02:02:56.714Z,949.89
2023-04-07T02:03:07.646Z,949.88
2023-04-07T02:03:18.670Z,949.88
2023-04-07T02:03:29.611Z,949.88
2023-04-07T02:03:40.801Z,949.88
2023-04-07T02:03:52.961Z,949.88
2023-04-07T02:04:04.632Z,949.87
2023-04-07T02:04:15.630Z,949.87
2023-04-07T02:04:26.553Z,949.87
2023-04-07T02:04:37.544Z,949.87
2023-04-07T02:04:48.623Z,949.86
2023-04-07T02:05:00.576Z,949.86
2023-04-07T02:05:11.572Z,949.86
2023-04-07T02:05:22.558Z,949.86
2023-04-07T02:05:33.543Z,949.86
2023-04-07T02:05:44.625Z,949.86
2023-04-07T02:05:56.615Z,949.86
2023-04-07T02:06:07.591Z,949.85
2023-04-07T02:06:18.567Z,949.85
2023-04-07T02:06:29.566Z,949.85
2023-04-07T02:06:40.544Z,949.85
2023-04-07T02:06:51.538Z,949.85
2023-04-07T02:07:02.622Z,949.84
2023-04-07T02:07:14.574Z,949.84
2023-04-07T02:07:25.548Z,949.84
2023-04-07T02:07:36.626Z,949.84
2023-04-07T02:07:48.614Z,949.84
2023-04-07T02:07:59.579Z,949.83
2023-04-07T02:08:10.549Z,949.83
2023-04-07T02:08:21.538Z,949.83
2023-04-07T02:08:32.639Z,949.83
2023-04-07T02:08:44.603Z,949.82
2023-04-07T02:08:55.566Z,949.82
2023-04-07T02:09:06.573Z,949.82
2023-04-07T02:09:17.546Z,949.82
2023-04-07T02:09:28.629Z,949.82
2023-04-07T02:09:40.583Z,949.81
2023-04-07T02:09:51.588Z,949.81
2023-04-07T02:10:02.562Z,949.81
2023-04-07T02:10:13.551Z,949.81
2023-04-07T02:10:24.524Z,949.81
2023-04-07T02:10:35.630Z,949.82
2023-04-07T02:10:47.576Z,949.81
2023-04-07T02:10:58.556Z,949.81
2023-04-07T02:11:09.560Z,949.81
2023-04-07T02:11:20.542Z,949.81
2023-04-07T02:11:31.623Z,949.81
2023-04-07T02:11:42.588Z,949.81
2023-04-07T02:11:53.577Z,949.81
2023-04-07T02:12:04.583Z,949.81
2023-04-07T02:12:15.563Z,949.81
2023-04-07T02:12:26.594Z,949.81
2023-04-07T02:12:37.581Z,949.80
2023-04-07T02:12:48.559Z,949.80
2023-04-07T02:12:59.544Z,949.80
2023-04-07T02:13:10.658Z,949.80
2023-04-07T02:13:22.589Z,949.80
2023-04-07T02:13:33.580Z,949.80
2023-04-07T02:13:44.586Z,949.79
2023-04-07T02:13:55.775Z,949.80
2023-04-07T02:14:06.543Z,949.80
2023-04-07T02:14:17.538Z,949.79
2023-04-07T02:14:28.609Z,949.79
2023-04-07T02:14:39.604Z,949.79
2023-04-07T02:14:50.574Z,949.79
2023-04-07T02:15:01.560Z,949.79
2023-04-07T02:15:12.617Z,949.79
2023-04-07T02:15:24.571Z,949.80
2023-04-07T02:15:35.589Z,949.79
2023-04-07T02:15:46.587Z,949.80
2023-04-07T02:15:57.585Z,949.80
2023-04-07T02:16:08.622Z,949.79
2023-04-07T02:16:20.628Z,949.79
2023-04-07T02:16:32.640Z,949.79
2023-04-07T02:16:43.781Z,949.79
2023-04-07T02:16:54.602Z,949.79
2023-04-07T02:17:05.555Z,949.79
2023-04-07T02:17:16.582Z,949.79
2023-04-07T02:17:27.579Z,949.79
2023-04-07T02:17:38.587Z,949.79
2023-04-07T02:17:49.602Z,949.79
2023-04-07T02:18:00.707Z,949.78
2023-04-07T02:18:12.573Z,949.79
2023-04-07T02:18:23.574Z,949.79
2023-04-07T02:18:35.585Z,949.79
2023-04-07T02:18:46.566Z,949.79
2023-04-07T02:18:57.550Z,949.79
2023-04-07T02:19:08.554Z,949.78
2023-04-07T02:19:19.637Z,949.78
2023-04-07T02:19:31.684Z,949.77
2023-04-07T02:19:42.565Z,949.77
2023-04-07T02:19:53.552Z,949.77
2023-04-07T02:20:04.559Z,949.76
2023-04-07T02:20:15.546Z,949.76